Wausaukee, WI (54177)

9:38 PM CDT on September 20, 2014 (GMT -0500)
Athelstane Township | Change Station
CLOSE
Current Station
Personal Weather Station
Location: Athelstane, WI
Elevation: 966 ft
Nearby Weather Stations
Active Advisory: Special Statement

Elev 966 ft 45.40 °N, 88.12 °W | Updated 5 seconds ago

Partly Cloudy
Partly Cloudy
59.7 °F
Feels Like 59.7 °F
N
0.0
Wind Variable Wind from WNW
Gusts 0.0 mph

Today
High -- | Low -- °F
--% Chance of Precip.
Yesterday
High -- | Low -- °F
Precip. -- in
6:36 AM 6:53 PM
Waning Crescent, 9% visible
Pressure 29.66 in
Visibility 10.0 miles
Clouds Few 5000 ft
Dew Point 52 °F
Humidity 76%
Rainfall 0.00 in
Snow Depth Not available.
UV 0 out of 12
Pollen .50 out of 12
Air Quality Not available.
Flu Activity Not available.
METAR KMNM 210215Z AUTO 00000KT 10SM VCTS FEW050 16/14 A2966 RMK AO1 LTG DSNT S TSB11

More Conditions Fewer Conditions

Pressure 29.66 in
Visibility 10.0 miles
Clouds Few 5000 ft
Dew Point 52 °F
Humidity 76%
Rainfall 0.00 in
Snow Depth Not available.
UV 0 out of 12
Pollen .50 out of 12
Air Quality Not available.
Flu Activity Not available.
METAR KMNM 210215Z AUTO 00000KT 10SM VCTS FEW050 16/14 A2966 RMK AO1 LTG DSNT S TSB11

More Conditions Fewer Conditions

10-Day Weather Forecast

Almanac

Astronomy

Sep. 20, 2014 Rise Set
Actual Time 6:36 AM CDT 6:53 PM CDT
Civil Twilight 6:06 AM CDT 7:22 PM CDT
Nautical Twilight 5:31 AM CDT 7:57 PM CDT
Astronomical Twilight 4:56 AM CDT 8:32 PM CDT
Moon 3:07 AM CDT (9/20) 5:02 PM CDT (9/20)
Length of Visible Light 13h 15m
Length of Day
12h 16m
Tomorrow will be 3m 9s shorter.
Waning Crescent, 9% of the Moon is Illuminated
Today
Waning Crescent
Sep 24
New
Oct 1
First Quarter
Oct 8
Full
Oct 15
Last Quarter

Today's Extremes

State Highs State Lows

Community

WunderPhotos

Upload Photos

1,755,032 photos uploaded!

WunderBlogs® & News

Nearby

Snow Depth

Station Depth Elevation
No new snow has been reported.

Earthquake Activity

City Distance Mag. Time & Date
No recent earthquake activity has been reported nearby.
Minimum magnitude displayed is 2.5.

Coastal Water Temperatures

Place Temperature
Menominee, MI 60.1 °F

Nearby Weather Stations